This is the latest recevied weather packets stored in our database for station/object EA5GTE-12. If no packets are shown the sender has not sent any weather packets the latest 10 day(s).
| Time | Temp. | Humidity | Pressure | Rain* | Wind** | Luminosity | Snow |
|---|---|---|---|---|---|---|---|
| 1777598527 | 13.89° C | 100% | 941.1 hPa | - | - | - | - |
| 1777597627 | 14.44° C | 100% | 941 hPa | - | - | - | - |
| 1777596727 | 14.44° C | 100% | 940.8 hPa | - | - | - | - |
| 1777595827 | 14.44° C | 100% | 940.9 hPa | - | - | - | - |
| 1777594927 | 14.44° C | 100% | 941.1 hPa | - | - | - | - |
| 1777594027 | 14.44° C | 100% | 941.3 hPa | - | - | - | - |
| 1777593127 | 14.44° C | 100% | 941.5 hPa | - | - | - | - |
| 1777592226 | 14.44° C | 100% | 941.5 hPa | - | - | - | - |
| 1777591326 | 14.44° C | 100% | 941.5 hPa | - | - | - | - |
| 1777590426 | 14.44° C | 100% | 941.4 hPa | - | - | - | - |
| 1777589526 | 13.89° C | 100% | 941.4 hPa | - | - | - | - |
| 1777588626 | 13.89° C | 100% | 940.9 hPa | - | - | - | - |
| 1777587726 | 13.89° C | 100% | 940.5 hPa | - | - | - | - |
| 1777586826 | 13.89° C | 100% | 940.7 hPa | - | - | - | - |
| 1777585926 | 13.89° C | 100% | 940.7 hPa | - | - | - | - |
| 1777585026 | 13.33° C | 100% | 940.5 hPa | - | - | - | - |
| 1777584126 | 13.33° C | 100% | 940.3 hPa | - | - | - | - |
| 1777583226 | 12.78° C | 100% | 940.4 hPa | - | - | - | - |
| 1777582326 | 12.22° C | 100% | 940.2 hPa | - | - | - | - |
| 1777581426 | 14.44° C | 100% | 939.7 hPa | - | - | - | - |
| 1777580526 | 17.78° C | 94% | 939.1 hPa | - | - | - | - |
| 1777579626 | 18.89° C | 100% | 938.8 hPa | - | - | - | - |
| 1777578726 | 19.44° C | 75% | 938.7 hPa | - | - | - | - |
| 1777577826 | 19.44° C | 71% | 938.3 hPa | - | - | - | - |
| 1777576925 | 19.44° C | 71% | 937.9 hPa | - | - | - | - |
* Rain since midnight (hover to see other rain measurements)
** Current wind speed in m/s (hover to see current wind gust speed)